sensor_id;sensor_type;location;lat;lon;timestamp;P1;durP1;ratioP1;P2;durP2;ratioP2
14789;SDS011;7486;51.010;10.366;2023-02-01T00:00:26;7.10;;;3.67;;
14789;SDS011;7486;51.010;10.366;2023-02-01T00:02:53;9.33;;;3.57;;
14789;SDS011;7486;51.010;10.366;2023-02-01T00:05:20;10.17;;;4.37;;
14789;SDS011;7486;51.010;10.366;2023-02-01T00:07:47;9.53;;;4.33;;
14789;SDS011;7486;51.010;10.366;2023-02-01T00:10:14;8.20;;;4.33;;
14789;SDS011;7486;51.010;10.366;2023-02-01T00:12:41;8.63;;;4.27;;
14789;SDS011;7486;51.010;10.366;2023-02-01T00:15:08;8.47;;;4.10;;
14789;SDS011;7486;51.010;10.366;2023-02-01T00:17:35;10.50;;;4.20;;
14789;SDS011;7486;51.010;10.366;2023-02-01T00:20:03;7.63;;;4.00;;
14789;SDS011;7486;51.010;10.366;2023-02-01T00:22:31;10.23;;;4.30;;
14789;SDS011;7486;51.010;10.366;2023-02-01T00:24:57;10.07;;;4.27;;
14789;SDS011;7486;51.010;10.366;2023-02-01T00:27:24;10.57;;;4.63;;
14789;SDS011;7486;51.010;10.366;2023-02-01T00:29:51;9.20;;;4.20;;
14789;SDS011;7486;51.010;10.366;2023-02-01T00:32:18;7.40;;;4.10;;
14789;SDS011;7486;51.010;10.366;2023-02-01T00:34:44;6.47;;;3.90;;
14789;SDS011;7486;51.010;10.366;2023-02-01T00:37:11;7.53;;;4.00;;
14789;SDS011;7486;51.010;10.366;2023-02-01T00:39:38;11.23;;;4.47;;
14789;SDS011;7486;51.010;10.366;2023-02-01T00:42:05;10.77;;;3.80;;
14789;SDS011;7486;51.010;10.366;2023-02-01T00:44:31;8.70;;;3.83;;
14789;SDS011;7486;51.010;10.366;2023-02-01T00:46:58;6.97;;;4.20;;
14789;SDS011;7486;51.010;10.366;2023-02-01T00:49:25;8.53;;;3.70;;
14789;SDS011;7486;51.010;10.366;2023-02-01T00:51:52;12.67;;;4.33;;
14789;SDS011;7486;51.010;10.366;2023-02-01T00:54:18;12.10;;;4.30;;
14789;SDS011;7486;51.010;10.366;2023-02-01T00:56:45;10.50;;;3.70;;
14789;SDS011;7486;51.010;10.366;2023-02-01T00:59:12;6.23;;;3.57;;
14789;SDS011;7486;51.010;10.366;2023-02-01T01:01:39;8.80;;;4.00;;
14789;SDS011;7486;51.010;10.366;2023-02-01T01:04:05;9.53;;;3.73;;
14789;SDS011;7486;51.010;10.366;2023-02-01T01:06:32;8.03;;;3.90;;
14789;SDS011;7486;51.010;10.366;2023-02-01T01:09:03;8.37;;;3.50;;
14789;SDS011;7486;51.010;10.366;2023-02-01T01:11:33;8.07;;;3.60;;
14789;SDS011;7486;51.010;10.366;2023-02-01T01:14:05;9.47;;;4.23;;
14789;SDS011;7486;51.010;10.366;2023-02-01T01:16:34;9.70;;;4.00;;
14789;SDS011;7486;51.010;10.366;2023-02-01T01:19:01;9.27;;;4.00;;
14789;SDS011;7486;51.010;10.366;2023-02-01T01:21:29;10.60;;;3.90;;
14789;SDS011;7486;51.010;10.366;2023-02-01T01:23:56;9.90;;;3.73;;
14789;SDS011;7486;51.010;10.366;2023-02-01T01:26:24;7.33;;;3.70;;
14789;SDS011;7486;51.010;10.366;2023-02-01T01:28:57;11.10;;;3.80;;
14789;SDS011;7486;51.010;10.366;2023-02-01T01:31:25;11.40;;;4.03;;
14789;SDS011;7486;51.010;10.366;2023-02-01T01:33:54;10.83;;;4.10;;
14789;SDS011;7486;51.010;10.366;2023-02-01T01:36:22;9.67;;;4.10;;
14789;SDS011;7486;51.010;10.366;2023-02-01T01:38:49;8.73;;;3.90;;
14789;SDS011;7486;51.010;10.366;2023-02-01T01:41:18;11.70;;;4.13;;
14789;SDS011;7486;51.010;10.366;2023-02-01T01:43:48;9.53;;;4.00;;
14789;SDS011;7486;51.010;10.366;2023-02-01T01:46:17;9.43;;;4.00;;
14789;SDS011;7486;51.010;10.366;2023-02-01T01:48:45;11.97;;;4.13;;
14789;SDS011;7486;51.010;10.366;2023-02-01T01:51:17;11.27;;;4.00;;
14789;SDS011;7486;51.010;10.366;2023-02-01T01:53:55;11.07;;;4.30;;
14789;SDS011;7486;51.010;10.366;2023-02-01T01:56:37;9.17;;;4.27;;
14789;SDS011;7486;51.010;10.366;2023-02-01T01:59:04;8.60;;;3.60;;
14789;SDS011;7486;51.010;10.366;2023-02-01T02:01:32;10.53;;;4.33;;
14789;SDS011;7486;51.010;10.366;2023-02-01T02:03:59;10.07;;;3.83;;
14789;SDS011;7486;51.010;10.366;2023-02-01T02:06:30;8.90;;;4.00;;
14789;SDS011;7486;51.010;10.366;2023-02-01T02:09:03;9.17;;;3.93;;
14789;SDS011;7486;51.010;10.366;2023-02-01T02:11:32;8.43;;;4.00;;
14789;SDS011;7486;51.010;10.366;2023-02-01T02:13:59;9.40;;;4.17;;
14789;SDS011;7486;51.010;10.366;2023-02-01T02:16:38;11.30;;;3.87;;
14789;SDS011;7486;51.010;10.366;2023-02-01T02:27:32;6.87;;;3.67;;
14789;SDS011;7486;51.010;10.366;2023-02-01T02:43:56;9.67;;;3.90;;
14789;SDS011;7486;51.010;10.366;2023-02-01T02:46:26;8.13;;;4.13;;
14789;SDS011;7486;51.010;10.366;2023-02-01T02:52:08;6.80;;;3.57;;
14789;SDS011;7486;51.010;10.366;2023-02-01T02:54:46;8.43;;;4.37;;
14789;SDS011;7486;51.010;10.366;2023-02-01T02:57:38;6.67;;;3.87;;
14789;SDS011;7486;51.010;10.366;2023-02-01T03:00:08;6.57;;;3.20;;
14789;SDS011;7486;51.010;10.366;2023-02-01T03:02:37;5.80;;;3.10;;
14789;SDS011;7486;51.010;10.366;2023-02-01T03:05:04;9.37;;;3.00;;
14789;SDS011;7486;51.010;10.366;2023-02-01T03:10:26;7.67;;;3.30;;
14789;SDS011;7486;51.010;10.366;2023-02-01T03:16:16;4.93;;;3.00;;
14789;SDS011;7486;51.010;10.366;2023-02-01T03:21:27;8.50;;;3.57;;
14789;SDS011;7486;51.010;10.366;2023-02-01T03:26:28;7.27;;;3.90;;
14789;SDS011;7486;51.010;10.366;2023-02-01T03:29:03;7.40;;;4.00;;
14789;SDS011;7486;51.010;10.366;2023-02-01T03:31:34;6.80;;;3.83;;
14789;SDS011;7486;51.010;10.366;2023-02-01T03:34:01;8.87;;;4.13;;
14789;SDS011;7486;51.010;10.366;2023-02-01T03:36:31;9.27;;;4.27;;
14789;SDS011;7486;51.010;10.366;2023-02-01T03:41:50;9.90;;;4.50;;
14789;SDS011;7486;51.010;10.366;2023-02-01T03:44:25;10.37;;;4.80;;
14789;SDS011;7486;51.010;10.366;2023-02-01T03:46:59;11.53;;;4.90;;
14789;SDS011;7486;51.010;10.366;2023-02-01T03:49:41;12.27;;;4.60;;
14789;SDS011;7486;51.010;10.366;2023-02-01T03:52:17;9.13;;;4.27;;
14789;SDS011;7486;51.010;10.366;2023-02-01T03:54:47;11.23;;;4.80;;
14789;SDS011;7486;51.010;10.366;2023-02-01T03:57:18;10.97;;;4.73;;
14789;SDS011;7486;51.010;10.366;2023-02-01T03:59:50;7.57;;;3.97;;
14789;SDS011;7486;51.010;10.366;2023-02-01T04:02:16;8.50;;;4.20;;
14789;SDS011;7486;51.010;10.366;2023-02-01T04:04:43;8.07;;;4.50;;
14789;SDS011;7486;51.010;10.366;2023-02-01T04:07:13;13.37;;;5.00;;
14789;SDS011;7486;51.010;10.366;2023-02-01T04:09:40;9.20;;;4.67;;
14789;SDS011;7486;51.010;10.366;2023-02-01T04:12:06;10.50;;;4.57;;
14789;SDS011;7486;51.010;10.366;2023-02-01T04:14:33;12.93;;;4.70;;
14789;SDS011;7486;51.010;10.366;2023-02-01T04:17:00;10.07;;;4.30;;
14789;SDS011;7486;51.010;10.366;2023-02-01T04:19:26;11.10;;;4.60;;
14789;SDS011;7486;51.010;10.366;2023-02-01T04:21:53;11.37;;;4.40;;
14789;SDS011;7486;51.010;10.366;2023-02-01T04:24:20;10.83;;;4.60;;
14789;SDS011;7486;51.010;10.366;2023-02-01T04:26:47;14.60;;;5.03;;
14789;SDS011;7486;51.010;10.366;2023-02-01T04:29:13;13.10;;;4.33;;
14789;SDS011;7486;51.010;10.366;2023-02-01T04:31:40;11.67;;;4.50;;
14789;SDS011;7486;51.010;10.366;2023-02-01T04:34:07;12.53;;;4.50;;
14789;SDS011;7486;51.010;10.366;2023-02-01T04:36:34;11.93;;;4.67;;
14789;SDS011;7486;51.010;10.366;2023-02-01T04:39:00;11.17;;;5.03;;
14789;SDS011;7486;51.010;10.366;2023-02-01T04:41:27;8.87;;;4.37;;
14789;SDS011;7486;51.010;10.366;2023-02-01T04:43:54;11.80;;;4.60;;
14789;SDS011;7486;51.010;10.366;2023-02-01T04:46:20;9.90;;;4.73;;
14789;SDS011;7486;51.010;10.366;2023-02-01T04:48:47;10.30;;;4.60;;
14789;SDS011;7486;51.010;10.366;2023-02-01T04:51:14;11.27;;;4.47;;
14789;SDS011;7486;51.010;10.366;2023-02-01T04:53:41;10.33;;;4.50;;
14789;SDS011;7486;51.010;10.366;2023-02-01T04:56:07;12.30;;;4.43;;
14789;SDS011;7486;51.010;10.366;2023-02-01T04:58:34;10.70;;;4.50;;
14789;SDS011;7486;51.010;10.366;2023-02-01T05:01:04;13.33;;;5.07;;
14789;SDS011;7486;51.010;10.366;2023-02-01T05:03:32;10.60;;;4.50;;
14789;SDS011;7486;51.010;10.366;2023-02-01T05:06:00;10.27;;;4.80;;
14789;SDS011;7486;51.010;10.366;2023-02-01T05:08:26;10.13;;;4.57;;
14789;SDS011;7486;51.010;10.366;2023-02-01T05:10:53;9.80;;;4.50;;
14789;SDS011;7486;51.010;10.366;2023-02-01T05:13:20;11.27;;;4.40;;
14789;SDS011;7486;51.010;10.366;2023-02-01T05:15:47;13.60;;;4.50;;
14789;SDS011;7486;51.010;10.366;2023-02-01T05:18:14;10.13;;;4.30;;
14789;SDS011;7486;51.010;10.366;2023-02-01T05:20:42;8.67;;;4.33;;
14789;SDS011;7486;51.010;10.366;2023-02-01T05:23:08;9.87;;;4.23;;
14789;SDS011;7486;51.010;10.366;2023-02-01T05:25:35;8.77;;;3.97;;
14789;SDS011;7486;51.010;10.366;2023-02-01T05:28:02;10.43;;;4.00;;
14789;SDS011;7486;51.010;10.366;2023-02-01T05:30:29;9.30;;;4.20;;
14789;SDS011;7486;51.010;10.366;2023-02-01T05:32:56;10.10;;;4.57;;
14789;SDS011;7486;51.010;10.366;2023-02-01T05:35:23;9.90;;;4.53;;
14789;SDS011;7486;51.010;10.366;2023-02-01T05:37:49;12.43;;;4.07;;
14789;SDS011;7486;51.010;10.366;2023-02-01T05:40:16;12.93;;;3.90;;
14789;SDS011;7486;51.010;10.366;2023-02-01T05:42:43;14.90;;;4.13;;
14789;SDS011;7486;51.010;10.366;2023-02-01T05:45:10;9.93;;;4.40;;
14789;SDS011;7486;51.010;10.366;2023-02-01T05:47:37;9.07;;;3.77;;
14789;SDS011;7486;51.010;10.366;2023-02-01T05:50:04;9.20;;;3.60;;
14789;SDS011;7486;51.010;10.366;2023-02-01T05:52:31;6.27;;;3.33;;
14789;SDS011;7486;51.010;10.366;2023-02-01T05:54:59;9.90;;;3.80;;
14789;SDS011;7486;51.010;10.366;2023-02-01T05:57:26;8.23;;;3.67;;
14789;SDS011;7486;51.010;10.366;2023-02-01T05:59:52;14.50;;;4.43;;
14789;SDS011;7486;51.010;10.366;2023-02-01T06:02:19;6.87;;;3.70;;
14789;SDS011;7486;51.010;10.366;2023-02-01T06:04:46;8.80;;;3.27;;
14789;SDS011;7486;51.010;10.366;2023-02-01T06:07:12;11.00;;;3.70;;
14789;SDS011;7486;51.010;10.366;2023-02-01T06:09:39;14.67;;;3.70;;
14789;SDS011;7486;51.010;10.366;2023-02-01T06:12:06;10.17;;;3.50;;
14789;SDS011;7486;51.010;10.366;2023-02-01T06:14:32;9.47;;;3.40;;
14789;SDS011;7486;51.010;10.366;2023-02-01T06:19:40;9.07;;;3.10;;
14789;SDS011;7486;51.010;10.366;2023-02-01T06:22:08;9.97;;;3.20;;
14789;SDS011;7486;51.010;10.366;2023-02-01T06:24:35;7.77;;;2.80;;
14789;SDS011;7486;51.010;10.366;2023-02-01T06:27:01;6.97;;;2.63;;
14789;SDS011;7486;51.010;10.366;2023-02-01T06:29:28;8.53;;;3.00;;
14789;SDS011;7486;51.010;10.366;2023-02-01T06:31:55;8.00;;;2.77;;
14789;SDS011;7486;51.010;10.366;2023-02-01T06:34:22;7.90;;;2.97;;
14789;SDS011;7486;51.010;10.366;2023-02-01T06:36:48;7.87;;;2.83;;
14789;SDS011;7486;51.010;10.366;2023-02-01T06:39:15;6.80;;;2.60;;
14789;SDS011;7486;51.010;10.366;2023-02-01T06:41:45;11.20;;;2.83;;
14789;SDS011;7486;51.010;10.366;2023-02-01T06:44:13;9.93;;;3.10;;
14789;SDS011;7486;51.010;10.366;2023-02-01T06:46:39;8.17;;;2.53;;
14789;SDS011;7486;51.010;10.366;2023-02-01T06:49:07;7.40;;;2.83;;
14789;SDS011;7486;51.010;10.366;2023-02-01T06:51:34;8.57;;;2.77;;
14789;SDS011;7486;51.010;10.366;2023-02-01T06:54:01;8.77;;;2.70;;
14789;SDS011;7486;51.010;10.366;2023-02-01T06:56:28;10.47;;;3.00;;
14789;SDS011;7486;51.010;10.366;2023-02-01T06:58:55;7.43;;;2.20;;
14789;SDS011;7486;51.010;10.366;2023-02-01T07:01:21;8.93;;;2.77;;
14789;SDS011;7486;51.010;10.366;2023-02-01T07:03:48;7.37;;;2.37;;
14789;SDS011;7486;51.010;10.366;2023-02-01T07:06:17;6.73;;;2.57;;
14789;SDS011;7486;51.010;10.366;2023-02-01T07:08:44;7.13;;;2.47;;
14789;SDS011;7486;51.010;10.366;2023-02-01T07:11:11;8.47;;;2.80;;
14789;SDS011;7486;51.010;10.366;2023-02-01T07:13:39;9.50;;;2.80;;
14789;SDS011;7486;51.010;10.366;2023-02-01T07:16:08;12.23;;;2.60;;
14789;SDS011;7486;51.010;10.366;2023-02-01T07:18:37;6.53;;;2.50;;
14789;SDS011;7486;51.010;10.366;2023-02-01T07:21:04;7.00;;;2.70;;
14789;SDS011;7486;51.010;10.366;2023-02-01T07:23:32;8.03;;;2.73;;
14789;SDS011;7486;51.010;10.366;2023-02-01T07:26:00;7.33;;;2.60;;
14789;SDS011;7486;51.010;10.366;2023-02-01T07:28:29;10.00;;;3.20;;
14789;SDS011;7486;51.010;10.366;2023-02-01T07:33:36;11.40;;;2.80;;
14789;SDS011;7486;51.010;10.366;2023-02-01T07:36:04;9.63;;;3.00;;
14789;SDS011;7486;51.010;10.366;2023-02-01T07:38:32;7.90;;;2.67;;
14789;SDS011;7486;51.010;10.366;2023-02-01T07:41:00;9.27;;;2.67;;
14789;SDS011;7486;51.010;10.366;2023-02-01T07:43:28;11.00;;;3.10;;
14789;SDS011;7486;51.010;10.366;2023-02-01T07:45:55;7.50;;;2.87;;
14789;SDS011;7486;51.010;10.366;2023-02-01T07:48:23;10.40;;;3.00;;
14789;SDS011;7486;51.010;10.366;2023-02-01T07:51:01;6.77;;;2.60;;
14789;SDS011;7486;51.010;10.366;2023-02-01T07:53:28;10.63;;;3.20;;
14789;SDS011;7486;51.010;10.366;2023-02-01T07:55:55;9.90;;;3.27;;
14789;SDS011;7486;51.010;10.366;2023-02-01T07:58:22;9.63;;;3.33;;
14789;SDS011;7486;51.010;10.366;2023-02-01T08:00:49;10.17;;;3.17;;
14789;SDS011;7486;51.010;10.366;2023-02-01T08:03:17;7.73;;;2.70;;
14789;SDS011;7486;51.010;10.366;2023-02-01T08:05:43;8.10;;;2.90;;
14789;SDS011;7486;51.010;10.366;2023-02-01T08:08:10;10.50;;;3.00;;
14789;SDS011;7486;51.010;10.366;2023-02-01T08:10:37;12.10;;;3.60;;
14789;SDS011;7486;51.010;10.366;2023-02-01T08:13:04;8.77;;;3.53;;
14789;SDS011;7486;51.010;10.366;2023-02-01T08:15:30;11.93;;;3.50;;
14789;SDS011;7486;51.010;10.366;2023-02-01T08:17:57;11.27;;;3.30;;
14789;SDS011;7486;51.010;10.366;2023-02-01T08:20:24;11.53;;;3.40;;
14789;SDS011;7486;51.010;10.366;2023-02-01T08:22:51;11.73;;;3.73;;
14789;SDS011;7486;51.010;10.366;2023-02-01T08:25:20;9.63;;;3.20;;
14789;SDS011;7486;51.010;10.366;2023-02-01T08:27:47;7.70;;;3.07;;
14789;SDS011;7486;51.010;10.366;2023-02-01T08:30:14;6.43;;;3.20;;
14789;SDS011;7486;51.010;10.366;2023-02-01T08:32:41;8.57;;;3.27;;
14789;SDS011;7486;51.010;10.366;2023-02-01T08:35:08;10.93;;;3.50;;
14789;SDS011;7486;51.010;10.366;2023-02-01T08:37:35;9.73;;;3.13;;
14789;SDS011;7486;51.010;10.366;2023-02-01T08:40:02;14.47;;;3.43;;
14789;SDS011;7486;51.010;10.366;2023-02-01T08:42:30;7.87;;;3.27;;
14789;SDS011;7486;51.010;10.366;2023-02-01T08:44:57;9.63;;;3.30;;
14789;SDS011;7486;51.010;10.366;2023-02-01T08:47:23;9.43;;;3.50;;
14789;SDS011;7486;51.010;10.366;2023-02-01T08:49:50;9.17;;;3.47;;
14789;SDS011;7486;51.010;10.366;2023-02-01T08:52:17;7.40;;;2.93;;
14789;SDS011;7486;51.010;10.366;2023-02-01T08:54:43;8.20;;;3.27;;
14789;SDS011;7486;51.010;10.366;2023-02-01T08:57:10;7.70;;;3.00;;
14789;SDS011;7486;51.010;10.366;2023-02-01T08:59:37;10.43;;;3.33;;
14789;SDS011;7486;51.010;10.366;2023-02-01T09:02:04;8.47;;;2.77;;
14789;SDS011;7486;51.010;10.366;2023-02-01T09:04:30;10.53;;;3.50;;
14789;SDS011;7486;51.010;10.366;2023-02-01T09:06:57;10.83;;;3.30;;
14789;SDS011;7486;51.010;10.366;2023-02-01T09:09:24;12.57;;;3.43;;
14789;SDS011;7486;51.010;10.366;2023-02-01T09:11:50;9.37;;;3.20;;
14789;SDS011;7486;51.010;10.366;2023-02-01T09:14:17;8.27;;;3.10;;
14789;SDS011;7486;51.010;10.366;2023-02-01T09:16:44;10.60;;;3.10;;
14789;SDS011;7486;51.010;10.366;2023-02-01T09:19:11;5.47;;;2.97;;
14789;SDS011;7486;51.010;10.366;2023-02-01T09:21:52;8.87;;;3.07;;
14789;SDS011;7486;51.010;10.366;2023-02-01T09:24:18;10.70;;;3.60;;
14789;SDS011;7486;51.010;10.366;2023-02-01T09:26:45;6.27;;;3.20;;
14789;SDS011;7486;51.010;10.366;2023-02-01T09:29:12;10.27;;;3.07;;
14789;SDS011;7486;51.010;10.366;2023-02-01T09:31:39;8.23;;;3.17;;
14789;SDS011;7486;51.010;10.366;2023-02-01T09:34:15;8.97;;;3.57;;
14789;SDS011;7486;51.010;10.366;2023-02-01T09:36:41;7.47;;;2.97;;
14789;SDS011;7486;51.010;10.366;2023-02-01T09:39:08;6.90;;;2.90;;
14789;SDS011;7486;51.010;10.366;2023-02-01T09:47:10;8.17;;;3.10;;
14789;SDS011;7486;51.010;10.366;2023-02-01T09:49:42;7.33;;;2.67;;
14789;SDS011;7486;51.010;10.366;2023-02-01T09:52:17;8.67;;;2.67;;
14789;SDS011;7486;51.010;10.366;2023-02-01T09:55:09;5.67;;;2.73;;
14789;SDS011;7486;51.010;10.366;2023-02-01T10:00:29;7.60;;;2.80;;
14789;SDS011;7486;51.010;10.366;2023-02-01T10:03:00;7.73;;;2.50;;
14789;SDS011;7486;51.010;10.366;2023-02-01T10:11:00;7.33;;;2.40;;
14789;SDS011;7486;51.010;10.366;2023-02-01T10:16:54;7.93;;;2.47;;
14789;SDS011;7486;51.010;10.366;2023-02-01T10:22:40;8.47;;;2.73;;
14789;SDS011;7486;51.010;10.366;2023-02-01T10:25:42;5.13;;;2.20;;
14789;SDS011;7486;51.010;10.366;2023-02-01T10:28:19;9.00;;;2.37;;
14789;SDS011;7486;51.010;10.366;2023-02-01T10:30:47;4.93;;;2.10;;
14789;SDS011;7486;51.010;10.366;2023-02-01T10:33:17;4.60;;;2.20;;
14789;SDS011;7486;51.010;10.366;2023-02-01T10:35:45;9.43;;;2.50;;
14789;SDS011;7486;51.010;10.366;2023-02-01T10:38:46;6.33;;;2.00;;
14789;SDS011;7486;51.010;10.366;2023-02-01T10:41:12;5.97;;;2.20;;
14789;SDS011;7486;51.010;10.366;2023-02-01T10:43:42;5.47;;;2.20;;
14789;SDS011;7486;51.010;10.366;2023-02-01T10:46:10;7.97;;;2.63;;
14789;SDS011;7486;51.010;10.366;2023-02-01T10:48:37;6.83;;;2.40;;
14789;SDS011;7486;51.010;10.366;2023-02-01T10:51:23;4.87;;;2.50;;
14789;SDS011;7486;51.010;10.366;2023-02-01T10:56:25;6.27;;;2.40;;
14789;SDS011;7486;51.010;10.366;2023-02-01T10:59:01;7.27;;;2.60;;
14789;SDS011;7486;51.010;10.366;2023-02-01T11:01:40;5.77;;;2.40;;
14789;SDS011;7486;51.010;10.366;2023-02-01T11:04:12;8.27;;;2.83;;
14789;SDS011;7486;51.010;10.366;2023-02-01T11:06:44;6.33;;;2.40;;
14789;SDS011;7486;51.010;10.366;2023-02-01T11:09:22;7.03;;;2.50;;
14789;SDS011;7486;51.010;10.366;2023-02-01T11:16:51;7.97;;;2.10;;
14789;SDS011;7486;51.010;10.366;2023-02-01T11:19:20;6.20;;;2.30;;
14789;SDS011;7486;51.010;10.366;2023-02-01T11:21:50;4.80;;;2.20;;
14789;SDS011;7486;51.010;10.366;2023-02-01T11:27:00;5.20;;;2.40;;
14789;SDS011;7486;51.010;10.366;2023-02-01T11:29:36;8.37;;;3.03;;
14789;SDS011;7486;51.010;10.366;2023-02-01T11:32:10;8.53;;;2.67;;
14789;SDS011;7486;51.010;10.366;2023-02-01T11:34:59;4.87;;;2.30;;
14789;SDS011;7486;51.010;10.366;2023-02-01T11:37:36;6.47;;;2.40;;
14789;SDS011;7486;51.010;10.366;2023-02-01T11:40:26;6.77;;;2.50;;
14789;SDS011;7486;51.010;10.366;2023-02-01T11:42:54;6.47;;;2.33;;
14789;SDS011;7486;51.010;10.366;2023-02-01T11:45:26;7.67;;;2.73;;
14789;SDS011;7486;51.010;10.366;2023-02-01T11:47:55;8.10;;;3.07;;
14789;SDS011;7486;51.010;10.366;2023-02-01T11:59:04;6.20;;;2.70;;
14789;SDS011;7486;51.010;10.366;2023-02-01T12:12:46;6.00;;;2.77;;
14789;SDS011;7486;51.010;10.366;2023-02-01T12:24:38;6.80;;;3.10;;
14789;SDS011;7486;51.010;10.366;2023-02-01T12:32:41;8.60;;;2.63;;
14789;SDS011;7486;51.010;10.366;2023-02-01T12:41:12;8.83;;;2.77;;
14789;SDS011;7486;51.010;10.366;2023-02-01T12:44:17;13.07;;;3.30;;
14789;SDS011;7486;51.010;10.366;2023-02-01T12:46:57;7.47;;;2.70;;
14789;SDS011;7486;51.010;10.366;2023-02-01T12:55:22;8.77;;;2.87;;
14789;SDS011;7486;51.010;10.366;2023-02-01T12:57:56;6.90;;;2.40;;
14789;SDS011;7486;51.010;10.366;2023-02-01T13:00:52;6.37;;;2.20;;
14789;SDS011;7486;51.010;10.366;2023-02-01T13:06:34;6.07;;;2.63;;
14789;SDS011;7486;51.010;10.366;2023-02-01T13:09:22;9.23;;;2.67;;
14789;SDS011;7486;51.010;10.366;2023-02-01T13:11:58;9.07;;;2.70;;
14789;SDS011;7486;51.010;10.366;2023-02-01T13:14:29;5.23;;;2.50;;
14789;SDS011;7486;51.010;10.366;2023-02-01T13:17:12;6.83;;;2.53;;
14789;SDS011;7486;51.010;10.366;2023-02-01T13:19:44;7.23;;;2.63;;
14789;SDS011;7486;51.010;10.366;2023-02-01T13:22:17;6.33;;;2.33;;
14789;SDS011;7486;51.010;10.366;2023-02-01T13:24:57;7.23;;;2.70;;
14789;SDS011;7486;51.010;10.366;2023-02-01T13:27:27;9.27;;;2.80;;
14789;SDS011;7486;51.010;10.366;2023-02-01T13:36:15;7.87;;;2.70;;
14789;SDS011;7486;51.010;10.366;2023-02-01T13:44:30;6.27;;;2.40;;
14789;SDS011;7486;51.010;10.366;2023-02-01T13:47:01;7.47;;;3.00;;
14789;SDS011;7486;51.010;10.366;2023-02-01T13:49:31;7.83;;;2.57;;
14789;SDS011;7486;51.010;10.366;2023-02-01T13:52:05;3.97;;;2.40;;
14789;SDS011;7486;51.010;10.366;2023-02-01T13:54:36;5.63;;;2.60;;
14789;SDS011;7486;51.010;10.366;2023-02-01T13:57:06;6.33;;;2.47;;
14789;SDS011;7486;51.010;10.366;2023-02-01T14:00:07;6.63;;;2.40;;
14789;SDS011;7486;51.010;10.366;2023-02-01T14:27:07;5.30;;;2.70;;
14789;SDS011;7486;51.010;10.366;2023-02-01T14:30:07;5.60;;;2.50;;
14789;SDS011;7486;51.010;10.366;2023-02-01T14:32:40;6.70;;;2.23;;
14789;SDS011;7486;51.010;10.366;2023-02-01T14:35:24;6.27;;;2.30;;
14789;SDS011;7486;51.010;10.366;2023-02-01T14:37:59;4.47;;;2.20;;
14789;SDS011;7486;51.010;10.366;2023-02-01T14:40:33;6.97;;;2.30;;
14789;SDS011;7486;51.010;10.366;2023-02-01T14:43:01;7.70;;;2.20;;
14789;SDS011;7486;51.010;10.366;2023-02-01T14:50:43;6.80;;;2.63;;
14789;SDS011;7486;51.010;10.366;2023-02-01T14:53:18;5.23;;;2.20;;
14789;SDS011;7486;51.010;10.366;2023-02-01T14:56:11;6.23;;;2.67;;
14789;SDS011;7486;51.010;10.366;2023-02-01T14:58:58;7.87;;;2.43;;
14789;SDS011;7486;51.010;10.366;2023-02-01T15:01:36;6.70;;;2.13;;
14789;SDS011;7486;51.010;10.366;2023-02-01T15:04:14;6.63;;;2.20;;
14789;SDS011;7486;51.010;10.366;2023-02-01T15:12:17;4.73;;;2.07;;
14789;SDS011;7486;51.010;10.366;2023-02-01T15:14:48;6.60;;;2.57;;
14789;SDS011;7486;51.010;10.366;2023-02-01T15:17:34;6.33;;;2.20;;
14789;SDS011;7486;51.010;10.366;2023-02-01T15:20:03;6.37;;;2.10;;
14789;SDS011;7486;51.010;10.366;2023-02-01T15:22:38;5.73;;;1.70;;
14789;SDS011;7486;51.010;10.366;2023-02-01T15:25:05;4.57;;;1.90;;
14789;SDS011;7486;51.010;10.366;2023-02-01T15:27:44;4.47;;;1.70;;
14789;SDS011;7486;51.010;10.366;2023-02-01T15:32:46;3.93;;;1.97;;
14789;SDS011;7486;51.010;10.366;2023-02-01T15:43:44;6.73;;;1.97;;
14789;SDS011;7486;51.010;10.366;2023-02-01T15:46:15;4.33;;;2.03;;
14789;SDS011;7486;51.010;10.366;2023-02-01T15:48:56;7.53;;;2.20;;
14789;SDS011;7486;51.010;10.366;2023-02-01T15:51:24;4.97;;;1.93;;
14789;SDS011;7486;51.010;10.366;2023-02-01T15:53:58;4.47;;;2.10;;
14789;SDS011;7486;51.010;10.366;2023-02-01T15:56:34;4.63;;;2.03;;
14789;SDS011;7486;51.010;10.366;2023-02-01T15:59:05;4.37;;;1.97;;
14789;SDS011;7486;51.010;10.366;2023-02-01T16:01:39;4.93;;;1.80;;
14789;SDS011;7486;51.010;10.366;2023-02-01T16:04:20;2.93;;;1.70;;
14789;SDS011;7486;51.010;10.366;2023-02-01T16:06:50;2.80;;;1.73;;
14789;SDS011;7486;51.010;10.366;2023-02-01T16:09:20;5.10;;;1.70;;
14789;SDS011;7486;51.010;10.366;2023-02-01T16:12:01;2.70;;;1.70;;
14789;SDS011;7486;51.010;10.366;2023-02-01T16:14:30;4.33;;;1.80;;
14789;SDS011;7486;51.010;10.366;2023-02-01T16:16:57;3.50;;;1.60;;
14789;SDS011;7486;51.010;10.366;2023-02-01T16:19:25;3.70;;;1.83;;
14789;SDS011;7486;51.010;10.366;2023-02-01T16:21:53;3.30;;;1.60;;
14789;SDS011;7486;51.010;10.366;2023-02-01T16:24:20;2.93;;;1.60;;
14789;SDS011;7486;51.010;10.366;2023-02-01T16:26:47;4.23;;;1.90;;
14789;SDS011;7486;51.010;10.366;2023-02-01T16:29:14;4.40;;;1.80;;
14789;SDS011;7486;51.010;10.366;2023-02-01T16:31:40;4.23;;;2.13;;
14789;SDS011;7486;51.010;10.366;2023-02-01T16:34:13;3.13;;;1.93;;
14789;SDS011;7486;51.010;10.366;2023-02-01T16:36:41;3.57;;;1.90;;
14789;SDS011;7486;51.010;10.366;2023-02-01T16:39:09;3.33;;;1.77;;
14789;SDS011;7486;51.010;10.366;2023-02-01T16:41:40;4.60;;;1.77;;
14789;SDS011;7486;51.010;10.366;2023-02-01T16:44:07;3.63;;;2.00;;
14789;SDS011;7486;51.010;10.366;2023-02-01T16:46:35;6.10;;;1.80;;
14789;SDS011;7486;51.010;10.366;2023-02-01T16:49:05;3.20;;;1.97;;
14789;SDS011;7486;51.010;10.366;2023-02-01T16:51:45;3.40;;;2.03;;
14789;SDS011;7486;51.010;10.366;2023-02-01T16:54:13;5.80;;;2.20;;
14789;SDS011;7486;51.010;10.366;2023-02-01T16:56:40;4.27;;;2.03;;
14789;SDS011;7486;51.010;10.366;2023-02-01T16:59:08;4.57;;;2.03;;
14789;SDS011;7486;51.010;10.366;2023-02-01T17:01:34;5.33;;;2.23;;
14789;SDS011;7486;51.010;10.366;2023-02-01T17:04:01;6.53;;;4.27;;
14789;SDS011;7486;51.010;10.366;2023-02-01T17:06:28;5.80;;;4.43;;
14789;SDS011;7486;51.010;10.366;2023-02-01T17:08:57;4.13;;;2.87;;
14789;SDS011;7486;51.010;10.366;2023-02-01T17:11:25;3.30;;;2.23;;
14789;SDS011;7486;51.010;10.366;2023-02-01T17:13:53;3.20;;;2.07;;
14789;SDS011;7486;51.010;10.366;2023-02-01T17:19:02;3.40;;;2.30;;
14789;SDS011;7486;51.010;10.366;2023-02-01T17:21:39;4.70;;;2.47;;
14789;SDS011;7486;51.010;10.366;2023-02-01T17:24:15;4.87;;;2.10;;
14789;SDS011;7486;51.010;10.366;2023-02-01T17:26:43;2.37;;;1.83;;
14789;SDS011;7486;51.010;10.366;2023-02-01T17:29:10;5.57;;;2.10;;
14789;SDS011;7486;51.010;10.366;2023-02-01T17:31:39;5.13;;;2.40;;
14789;SDS011;7486;51.010;10.366;2023-02-01T17:34:08;6.13;;;2.50;;
14789;SDS011;7486;51.010;10.366;2023-02-01T17:36:36;4.40;;;2.47;;
14789;SDS011;7486;51.010;10.366;2023-02-01T17:39:03;6.47;;;2.57;;
14789;SDS011;7486;51.010;10.366;2023-02-01T17:41:32;3.93;;;2.33;;
14789;SDS011;7486;51.010;10.366;2023-02-01T17:43:59;5.27;;;3.03;;
14789;SDS011;7486;51.010;10.366;2023-02-01T17:46:29;4.83;;;2.30;;
14789;SDS011;7486;51.010;10.366;2023-02-01T17:48:56;6.70;;;2.50;;
14789;SDS011;7486;51.010;10.366;2023-02-01T17:51:26;6.30;;;3.20;;
14789;SDS011;7486;51.010;10.366;2023-02-01T17:53:54;5.03;;;2.73;;
14789;SDS011;7486;51.010;10.366;2023-02-01T17:56:22;5.50;;;2.60;;
14789;SDS011;7486;51.010;10.366;2023-02-01T17:58:49;4.20;;;2.70;;
14789;SDS011;7486;51.010;10.366;2023-02-01T18:01:17;5.57;;;2.50;;
14789;SDS011;7486;51.010;10.366;2023-02-01T18:03:49;4.17;;;2.20;;
14789;SDS011;7486;51.010;10.366;2023-02-01T18:06:17;5.33;;;2.90;;
14789;SDS011;7486;51.010;10.366;2023-02-01T18:08:46;4.93;;;2.57;;